Cropwell, Alabama
Current Conditions -  °F | °C
As of 3:35 PM on Friday 19 Dec 2014 (Local Time) from KASN Reporting Station
Scattered Clouds Scattered Clouds  
Wind Chill: 48°   Ceiling: Unl
Heat Index: 48°   Visibility: 10mi
Dew Point: 36°   Wind: 3mph
Humidity: 62%   Direction: 360°N
Pressure: 30.13"   Gusts: NA
Location:  33.55°N, 86.27°W
Report Text: KASN 192135Z AUTO 36003KT 10SM SCT120 09/02 A3013 RMK AO2 T00900021
Loading
Personal Weather Stations






























Interactive Weather Map New forecast layout! Learn more

10-Day Weather Forecast

Advertisements
Track Severe Weather on mobile